Time;durP1;ratioP1;P1;durP2;ratioP2;P2;SDS_P1;SDS_P2;PMS_P1;PMS_P2;Temp;Humidity;BMP_temperature;BMP_pressure;BME280_temperature;BME280_humidity;BME280_pressure;Samples;Min_cycle;Max_cycle;Signal;HPM_P1;HPM_P2
2022/12/18 00:04:30;;;;;;;14.93;9.10;;;;;;;19.98;49.25;101675.97;20919891;28;20036;-81
2022/12/18 00:14:31;;;;;;;13.70;9.05;;;;;;;19.97;48.87;101708.44;20957540;28;20041;-81
2022/12/18 00:24:31;;;;;;;14.25;8.85;;;;;;;19.96;48.38;101719.88;20927263;28;20083;-80
2022/12/18 00:34:32;;;;;;;13.70;8.30;;;;;;;19.94;48.55;101728.78;20925327;28;20041;-81
2022/12/18 00:44:32;;;;;;;15.23;9.32;;;;;;;19.92;48.96;101741.13;20926062;28;20044;-81
2022/12/18 00:54:33;;;;;;;14.60;8.90;;;;;;;19.92;48.57;101749.03;20944752;28;20453;-80
2022/12/18 01:04:34;;;;;;;12.25;8.18;;;;;;;19.91;48.05;101763.09;20924768;28;20041;-81
2022/12/18 01:14:34;;;;;;;14.13;8.85;;;;;;;19.92;48.40;101772.69;20912685;28;20047;-81
2022/12/18 01:24:35;;;;;;;11.57;8.13;;;;;;;19.91;48.09;101784.13;20949092;28;20665;-80
2022/12/18 01:34:37;;;;;;;12.43;7.93;;;;;;;19.91;48.28;101792.00;20964914;28;20045;-82
2022/12/18 01:44:49;;;;;;;11.88;8.00;;;;;;;19.92;48.30;101801.59;20945024;28;20051;-82
2022/12/18 01:54:51;;;;;;;11.77;7.63;;;;;;;19.91;48.00;101811.28;20953259;28;20053;-81
2022/12/18 02:04:51;;;;;;;11.88;7.88;;;;;;;19.89;48.07;101822.78;20946271;28;20032;-83
2022/12/18 02:14:59;;;;;;;11.65;7.45;;;;;;;19.89;48.36;101835.94;20944264;28;20058;-82
2022/12/18 02:25:30;;;;;;;11.63;7.82;;;;;;;19.88;48.31;101828.97;20953678;28;20163;-81
2022/12/18 02:35:32;;;;;;;11.43;7.60;;;;;;;19.88;48.24;101853.47;20945278;28;24480;-82
2022/12/18 02:45:33;;;;;;;10.98;7.82;;;;;;;19.84;48.20;101862.44;20961707;28;20048;-82
2022/12/18 02:55:44;;;;;;;12.25;7.50;;;;;;;19.84;47.87;101876.44;20951085;28;20122;-81
2022/12/18 03:05:52;;;;;;;12.60;7.88;;;;;;;19.84;48.14;101886.94;20912935;28;20082;-80
2022/12/18 03:15:55;;;;;;;11.35;7.72;;;;;;;19.84;47.84;101897.47;20932176;28;20037;-81
2022/12/18 03:25:58;;;;;;;;;;;;;;;19.86;48.15;101901.78;20927099;28;20071;-84
2022/12/18 03:35:58;;;;;;;10.77;7.43;;;;;;;19.84;47.83;101922.91;20933842;28;20020;-83
2022/12/18 03:46:11;;;;;;;9.77;6.68;;;;;;;19.86;47.82;101933.34;20918164;28;20041;-81
2022/12/18 03:56:16;;;;;;;12.03;6.93;;;;;;;19.84;47.79;101933.41;20937127;28;20164;-81
2022/12/18 04:06:17;;;;;;;11.52;7.50;;;;;;;19.82;47.56;101943.97;20918114;28;20041;-80
2022/12/18 04:16:18;;;;;;;11.55;7.10;;;;;;;19.81;47.77;101944.91;20902861;28;20086;-82
2022/12/18 04:26:18;;;;;;;11.00;7.22;;;;;;;19.80;47.77;101958.97;20931795;28;20040;-80
2022/12/18 04:46:52;;;;;;;11.93;7.45;;;;;;;19.79;47.81;101980.91;20930139;28;20041;-80
2022/12/18 04:56:52;;;;;;;12.07;7.68;;;;;;;19.78;47.78;101997.59;20944090;28;20516;-80
2022/12/18 05:06:53;;;;;;;9.88;6.85;;;;;;;19.78;47.94;102005.47;20915969;28;20068;-81
2022/12/18 05:16:53;;;;;;;11.43;7.20;;;;;;;19.80;48.12;102008.91;20924982;28;20440;-80
2022/12/18 05:26:54;;;;;;;9.70;6.53;;;;;;;19.86;47.89;102017.47;20924536;28;20422;-80
2022/12/18 05:36:54;;;;;;;10.45;6.40;;;;;;;19.94;47.49;102034.56;20926335;28;20075;-85
2022/12/18 05:46:56;;;;;;;10.77;6.88;;;;;;;20.00;48.15;102036.09;20921771;28;20418;-87
2022/12/18 05:56:58;;;;;;;10.90;7.05;;;;;;;20.08;47.88;102056.75;20921397;28;20047;-85
2022/12/18 06:06:58;;;;;;;11.30;6.60;;;;;;;20.19;48.86;102065.03;20932735;28;20040;-84
2022/12/18 06:16:59;;;;;;;11.35;6.72;;;;;;;20.24;48.38;102062.19;20891096;28;20159;-83
2022/12/18 06:27:00;;;;;;;11.80;6.88;;;;;;;20.33;49.44;102079.31;20912674;28;20078;-82
2022/12/18 06:37:02;;;;;;;14.80;8.32;;;;;;;20.37;49.63;102099.28;20917440;28;20102;-85
2022/12/18 06:47:03;;;;;;;13.35;8.02;;;;;;;20.45;49.30;102120.81;20940046;28;20041;-84
2022/12/18 06:57:04;;;;;;;13.30;8.23;;;;;;;20.52;49.24;102124.88;20955139;28;20041;-85
2022/12/18 07:07:04;;;;;;;13.98;9.00;;;;;;;20.57;49.02;102143.09;20939133;28;20052;-83
2022/12/18 07:17:05;;;;;;;12.32;8.23;;;;;;;20.60;48.47;102145.56;20920100;28;20040;-82
2022/12/18 07:27:05;;;;;;;14.10;8.13;;;;;;;20.65;48.39;102164.63;20925791;28;20045;-79
2022/12/18 07:37:09;;;;;;;24.30;10.40;;;;;;;20.42;44.40;102203.41;20890726;28;20407;-76
2022/12/18 07:47:09;;;;;;;18.35;10.52;;;;;;;20.52;45.00;102201.19;20928621;28;20048;-79
2022/12/18 07:57:10;;;;;;;17.17;9.73;;;;;;;20.61;45.34;102211.28;20935359;28;20446;-83
2022/12/18 08:07:13;;;;;;;15.07;9.13;;;;;;;20.67;45.49;102233.84;20933044;28;20048;-80
2022/12/18 08:17:15;;;;;;;17.05;9.68;;;;;;;20.72;45.96;102249.47;20927992;28;20277;-82
2022/12/18 08:27:16;;;;;;;12.98;8.02;;;;;;;20.76;45.71;102243.13;20949497;28;20064;-81
2022/12/18 08:37:17;;;;;;;12.23;8.00;;;;;;;20.78;45.89;102260.56;20943740;28;20051;-80
2022/12/18 08:47:18;;;;;;;14.73;8.63;;;;;;;20.82;45.81;102255.16;20941691;28;20535;-84
2022/12/18 08:57:19;;;;;;;13.18;8.48;;;;;;;20.88;46.73;102266.25;20953784;28;20028;-78
2022/12/18 09:07:20;;;;;;;11.77;8.05;;;;;;;20.94;46.24;102287.03;20907679;28;20053;-88
2022/12/18 09:17:21;;;;;;;12.73;7.72;;;;;;;20.98;46.33;102287.75;20951621;28;20029;-84
2022/12/18 09:27:21;;;;;;;12.98;7.60;;;;;;;21.06;46.32;102287.41;20952090;28;20054;-77
2022/12/18 09:37:22;;;;;;;12.57;7.70;;;;;;;21.14;46.47;102287.03;20928060;28;20029;-79
2022/12/18 09:47:29;;;;;;;13.57;8.50;;;;;;;21.20;46.69;102287.63;20919805;28;20051;-78
2022/12/18 09:57:42;;;;;;;13.32;8.50;;;;;;;21.27;46.79;102283.72;20940731;28;20044;-80
2022/12/18 10:08:00;;;;;;;14.90;8.52;;;;;;;21.33;46.18;102287.03;20916854;28;20384;-78
2022/12/18 10:18:37;;;;;;;14.85;8.68;;;;;;;21.42;46.75;102284.81;20940741;28;20040;-77
2022/12/18 10:28:40;;;;;;;15.90;8.52;;;;;;;21.53;47.08;102278.13;20925726;28;21416;-79
2022/12/18 10:38:41;;;;;;;13.50;8.70;;;;;;;21.55;46.78;102268.38;20947624;28;20062;-86
2022/12/18 10:48:51;;;;;;;13.30;8.60;;;;;;;21.61;46.86;102275.19;20868062;28;20099;-87
2022/12/18 10:59:04;;;;;;;15.25;9.27;;;;;;;21.61;46.63;102275.19;20856244;28;20044;-77
2022/12/18 11:09:18;;;;;;;16.80;10.15;;;;;;;21.68;47.41;102266.88;20826754;28;20115;-75
2022/12/18 11:19:39;;;;;;;14.85;10.02;;;;;;;21.78;47.33;102253.25;20827161;28;20047;-83
2022/12/18 11:29:40;;;;;;;15.25;9.45;;;;;;;21.88;47.46;102257.94;20846474;28;20103;-76
2022/12/18 11:39:51;;;;;;;13.82;9.57;;;;;;;21.97;47.55;102239.94;20852595;28;20045;-76
2022/12/18 11:49:55;;;;;;;18.65;10.52;;;;;;;22.07;48.71;102247.31;20845080;28;20550;-74
2022/12/18 12:00:14;;;;;;;17.88;11.75;;;;;;;22.18;50.41;102241.50;20822549;28;20042;-76
2022/12/18 12:10:37;;;;;;;19.58;11.13;;;;;;;22.23;49.69;102222.78;20806685;28;20049;-75
2022/12/18 12:20:44;;;;;;;16.83;10.10;;;;;;;22.28;49.69;102225.19;20827874;28;20044;-78
2022/12/18 12:31:03;;;;;;;15.38;9.70;;;;;;;22.25;49.23;102225.31;20853653;28;20562;-75
2022/12/18 12:51:37;;;;;;;18.38;9.25;;;;;;;22.10;45.91;102248.94;20930630;28;20044;-78
2022/12/18 13:01:49;;;;;;;17.92;9.23;;;;;;;22.10;46.62;102259.50;20933400;28;20052;-77
2022/12/18 13:22:31;;;;;;;13.85;8.25;;;;;;;22.01;47.05;102275.81;20940718;28;20037;-76
2022/12/18 13:32:32;;;;;;;11.10;7.90;;;;;;;21.96;46.91;102281.31;20927088;28;20526;-76
2022/12/18 13:52:58;;;;;;;11.70;7.60;;;;;;;21.85;47.07;102296.81;20932109;28;20087;-76
2022/12/18 14:02:59;;;;;;;12.07;7.57;;;;;;;21.76;47.30;102311.31;20924503;28;20190;-77
2022/12/18 14:13:06;;;;;;;12.27;7.57;;;;;;;21.74;47.09;102310.56;20931827;28;20105;-76
2022/12/18 14:23:36;;;;;;;27.17;7.95;;;;;;;21.49;42.44;102306.44;20922478;28;20051;-79
2022/12/18 14:33:38;;;;;;;35.15;16.65;;;;;;;20.44;38.61;102313.84;20920968;28;20029;-79
2022/12/18 14:43:40;;;;;;;26.02;13.90;;;;;;;20.98;41.90;102329.88;20887419;28;20043;-81
2022/12/18 14:53:48;;;;;;;20.48;12.35;;;;;;;21.16;44.09;102346.63;20912397;28;20037;-79
2022/12/18 15:03:48;;;;;;;23.73;12.15;;;;;;;21.17;44.48;102364.16;20917236;28;20033;-79
2022/12/18 15:13:49;;;;;;;19.95;11.18;;;;;;;21.27;45.97;102369.84;20909905;28;20527;-80
2022/12/18 15:23:53;;;;;;;23.48;12.02;;;;;;;21.38;46.23;102377.25;20890941;28;20052;-75
2022/12/18 15:33:54;;;;;;;20.70;12.23;;;;;;;21.49;47.18;102390.78;20932542;28;20045;-80
2022/12/18 15:43:56;;;;;;;23.33;12.63;;;;;;;21.60;48.15;102400.84;20896602;28;20045;-80
2022/12/18 15:54:01;;;;;;;22.43;11.90;;;;;;;21.67;48.17;102414.59;20921987;28;20139;-80
2022/12/18 16:04:01;;;;;;;23.73;13.02;;;;;;;21.72;48.16;102436.34;20916937;28;20044;-76
2022/12/18 16:14:02;;;;;;;19.30;12.43;;;;;;;21.79;48.47;102437.75;20910774;28;20055;-80
2022/12/18 16:24:03;;;;;;;20.15;11.52;;;;;;;21.83;48.94;102449.84;20892047;28;20512;-79
2022/12/18 16:34:11;;;;;;;21.27;11.40;;;;;;;21.87;49.02;102447.91;20920611;28;20045;-77
2022/12/18 16:44:12;;;;;;;16.92;11.00;;;;;;;21.90;48.61;102466.25;20916341;28;20109;-78
2022/12/18 16:54:13;;;;;;;14.25;10.23;;;;;;;21.90;48.87;102480.28;20952544;28;20131;-78
2022/12/18 17:04:16;;;;;;;15.73;10.13;;;;;;;21.93;48.21;102474.00;20949675;28;20969;-77
2022/12/18 17:14:20;;;;;;;17.38;9.68;;;;;;;21.86;48.53;102456.75;20942608;28;20138;-81
2022/12/18 17:24:21;;;;;;;15.70;9.80;;;;;;;21.88;49.16;102454.91;20940883;28;20087;-82
2022/12/18 17:34:22;;;;;;;16.08;9.70;;;;;;;21.86;48.90;102468.19;20919987;28;20045;-77
2022/12/18 17:44:23;;;;;;;14.52;9.88;;;;;;;21.87;48.78;102459.34;20915084;28;20074;-82
2022/12/18 17:54:23;;;;;;;14.65;9.48;;;;;;;21.85;48.98;102477.03;20926725;28;20134;-77
2022/12/18 18:04:25;;;;;;;17.73;10.57;;;;;;;21.84;48.31;102470.03;20908527;28;20032;-81
2022/12/18 18:14:28;;;;;;;22.97;13.30;;;;;;;21.53;45.08;102476.72;20903126;28;20123;-81
2022/12/18 18:24:30;;;;;;;21.15;11.90;;;;;;;21.50;46.60;102486.53;20918215;28;20048;-76
2022/12/18 18:34:31;;;;;;;17.02;10.88;;;;;;;21.54;46.73;102478.38;20872859;28;20075;-76
2022/12/18 18:44:32;;;;;;;22.40;11.48;;;;;;;21.51;46.92;102493.53;20886703;28;20075;-77
2022/12/18 18:54:33;;;;;;;21.73;11.80;;;;;;;21.48;47.28;102517.38;20923836;28;20045;-77
2022/12/18 19:04:35;;;;;;;21.42;12.15;;;;;;;21.40;47.95;102517.72;20913213;28;20044;-78
2022/12/18 19:14:36;;;;;;;21.07;12.30;;;;;;;21.39;48.35;102521.28;20907070;28;20040;-81
2022/12/18 19:24:37;;;;;;;37.38;12.45;;;;;;;21.39;48.88;102534.44;20923965;28;20041;-80
2022/12/18 19:34:39;;;;;;;22.85;12.02;;;;;;;21.40;49.34;102551.97;20932157;28;20374;-79
2022/12/18 19:44:41;;;;;;;22.97;13.23;;;;;;;21.38;49.76;102556.47;20938014;28;20067;-81
2022/12/18 19:54:43;;;;;;;20.90;12.93;;;;;;;21.33;50.06;102564.56;20947408;28;20131;-77
2022/12/18 20:04:44;;;;;;;22.58;12.40;;;;;;;21.30;49.54;102567.34;20905136;28;20042;-80
2022/12/18 20:14:44;;;;;;;19.48;11.85;;;;;;;21.16;48.89;102578.47;20898011;28;20045;-82
2022/12/18 20:24:46;;;;;;;31.17;15.65;;;;;;;20.99;47.65;102579.16;20886042;28;20120;-79
2022/12/18 20:34:48;;;;;;;25.88;15.48;;;;;;;20.93;47.97;102587.31;20865918;28;20067;-82
2022/12/18 20:44:51;;;;;;;27.90;16.63;;;;;;;20.90;49.32;102598.84;20956484;28;20068;-83
2022/12/18 20:54:51;;;;;;;26.92;16.80;;;;;;;20.88;49.90;102605.94;20958260;28;20045;-83
2022/12/18 21:04:52;;;;;;;25.83;15.98;;;;;;;20.85;50.32;102610.47;20943450;28;20036;-83
2022/12/18 21:14:53;;;;;;;27.52;17.08;;;;;;;20.77;50.53;102619.53;20952028;28;20052;-83
2022/12/18 21:24:55;;;;;;;26.50;16.30;;;;;;;20.70;50.47;102625.97;20959596;28;20513;-84
2022/12/18 21:34:55;;;;;;;26.75;16.33;;;;;;;20.63;50.69;102617.44;20953775;28;20044;-84
2022/12/18 21:44:55;;;;;;;28.98;16.58;;;;;;;20.59;50.34;102613.22;20952603;28;20155;-81
2022/12/18 21:54:57;;;;;;;26.95;16.23;;;;;;;20.56;50.22;102609.84;20950966;28;20050;-81
2022/12/18 22:04:57;;;;;;;26.67;16.80;;;;;;;20.50;50.22;102602.22;20956450;28;20108;-80
2022/12/18 22:14:58;;;;;;;27.40;16.38;;;;;;;20.44;50.02;102613.81;20965924;28;20036;-80
2022/12/18 22:24:58;;;;;;;25.73;16.85;;;;;;;20.37;50.36;102610.56;20942742;28;20037;-81
2022/12/18 22:35:03;;;;;;;23.77;15.93;;;;;;;20.36;49.74;102606.22;20955348;28;20623;-80
2022/12/18 22:45:05;;;;;;;26.05;16.40;;;;;;;20.32;49.86;102625.66;20902966;28;20052;-81
2022/12/18 22:55:07;;;;;;;24.27;15.82;;;;;;;20.28;50.07;102624.94;20865791;28;20499;-81
2022/12/18 23:05:13;;;;;;;23.75;15.23;;;;;;;20.26;49.85;102632.03;20870464;28;20060;-81
2022/12/18 23:15:13;;;;;;;23.48;15.30;;;;;;;20.25;49.77;102627.69;20859244;28;20049;-81
2022/12/18 23:25:14;;;;;;;25.73;14.88;;;;;;;20.26;50.27;102632.03;20812682;28;20047;-78
2022/12/18 23:35:16;;;;;;;23.00;14.23;;;;;;;20.22;50.42;102632.22;20840469;28;20041;-78
2022/12/18 23:45:16;;;;;;;21.52;13.85;;;;;;;20.21;50.13;102626.06;20854009;28;20040;-78
2022/12/18 23:55:16;;;;;;;22.65;13.85;;;;;;;20.18;50.27;102641.97;20903270;28;20289;-78
